F\v Desperado — FVFQ — position and weather

sailwx.info

Track history (hours):
 
Tides and Currents Weather Stations Pressure Air Temp Water Temp Dewpoint Dewpoint Depression Visibility Wind Speed Wind Dir Waves Ship Positions

F\v Desperado

Last reported at 2016-Dec-09 01:33 UTC. Time now 2016-Dec-09 02:08 UTC.
Position N 47°53' W 003°55'.

Type: Fishing. MMSI: 228312000.

Date/timePositionNaut miles runAvg speedWind from/ knotsBaromVisibWave heightAir tempDewpointWater temp
2016-Dec-09 01:33N 47°53' W 003°55'0 0.0
2016-Dec-09 00:16N 47°53' W 003°55'0 0.0
2016-Dec-08 23:21N 47°53' W 003°55'0 0.0
2016-Dec-08 13:03N 47°53' W 003°55'0 0.0
2016-Dec-08 10:12N 47°53' W 003°55'0 0.0
2016-Dec-08 08:14N 47°53' W 003°55'0 0.0
2016-Dec-08 07:19N 47°53' W 003°55'0 0.0
2016-Dec-08 05:30N 47°53' W 003°55'0 0.0
2016-Dec-08 04:05N 47°53' W 003°55'5 1.7
2016-Dec-08 01:22N 47°48' W 003°56'9 8.2
2016-Dec-08 00:16N 47°39' W 003°54'6 8.3
2016-Dec-07 23:33N 47°33' W 003°54'8 8.3
2016-Dec-07 22:33N 47°25' W 003°53'7 7.0
2016-Dec-07 21:33N 47°18' W 003°53'3 3.2
2016-Dec-07 20:33N 47°15' W 003°53'3 3.4
2016-Dec-07 19:33N 47°11' W 003°54'4 3.6
2016-Dec-07 18:33N 47°08' W 003°55'2 2.4
2016-Dec-07 17:33N 47°08' W 003°52'3 2.8
2016-Dec-07 16:33N 47°07' W 003°55'3 2.9
2016-Dec-07 15:34N 47°10' W 003°55'3 2.9
2016-Dec-07 14:33N 47°08' W 003°52'3 2.5
2016-Dec-07 13:33N 47°05' W 003°51'3 3.0
2016-Dec-07 12:33N 47°07' W 003°54'3 2.8
2016-Dec-07 11:33N 47°10' W 003°54'2 2.3
2016-Dec-07 10:33N 47°08' W 003°52'2 2.3
2016-Dec-07 09:33N 47°08' W 003°56'3 2.8
2016-Dec-07 08:33N 47°10' W 003°54'3 2.3
2016-Dec-07 07:22N 47°07' W 003°53'2 2.5
2016-Dec-07 06:33N 47°07' W 003°56'3 2.9
2016-Dec-07 05:33N 47°10' W 003°54'3 2.6
2016-Dec-07 04:33N 47°07' W 003°52'2 2.5
2016-Dec-07 03:33N 47°08' W 003°56'2 2.3
2016-Dec-07 02:33N 47°09' W 003°53'3 2.4
2016-Dec-07 01:25N 47°07' W 003°55'2 2.8
2016-Dec-07 00:33N 47°09' W 003°55'2 2.0
2016-Dec-06 23:30N 47°08' W 003°52'2 2.0
2016-Dec-06 22:33N 47°07' W 003°55'1 0.7
2016-Dec-06 21:33N 47°08' W 003°54'2 2.2
2016-Dec-06 20:31N 47°10' W 003°52'2 0.7
2016-Dec-06 17:30N 47°09' W 003°55'2 2.3
2016-Dec-06 16:33N 47°07' W 003°52'2 1.3
2016-Dec-06 15:06N 47°08' W 003°55'2 3.5
2016-Dec-06 14:33N 47°07' W 003°53'5 3.7
2016-Dec-06 13:18N 47°03' W 003°48'4 3.5
2016-Dec-06 12:12N 47°00' W 003°45'1 1.1
2016-Dec-06 11:17N 46°59' W 003°45'2 2.1
2016-Dec-06 10:21N 47°00' W 003°42'4 3.6
2016-Dec-06 09:15N 47°03' W 003°38'4 3.6
2016-Dec-06 08:15N 47°05' W 003°34'2 2.4
2016-Dec-06 07:26N 47°05' W 003°31'3 3.0
2016-Dec-06 06:31N 47°08' W 003°31'3 3.2
2016-Dec-06 05:33N 47°10' W 003°34'4 1.7
2016-Dec-06 03:21N 47°07' W 003°37'2 3.0
2016-Dec-06 02:33N 47°10' W 003°37'3 2.8
2016-Dec-06 01:33N 47°13' W 003°36'2 2.2
2016-Dec-06 00:33N 47°11' W 003°34'4 3.6
2016-Dec-05 23:33N 47°08' W 003°33'3 3.3
2016-Dec-05 22:33N 47°05' W 003°35'40 1.8
2016-Dec-04 23:28N 47°43' W 003°55'8 8.3
2016-Dec-04 22:33N 47°35' W 003°52'9 8.3
2016-Dec-04 21:29N 47°27' W 003°47'8 7.6
2016-Dec-04 20:27N 47°20' W 003°43'17 1.5
2016-Dec-04 08:31N 47°02' W 003°46'2 1.9
2016-Dec-04 07:30N 47°04' W 003°45'2 2.2
2016-Dec-04 06:34N 47°02' W 003°44'2 0.6
2016-Dec-04 03:32N 47°02' W 003°41'3 2.6
2016-Dec-04 02:23N 47°04' W 003°44'3 2.9
2016-Dec-04 01:31N 47°06' W 003°44'2 2.5
2016-Dec-04 00:32N 47°09' W 003°44'7 1.5
2016-Dec-03 19:30N 47°01' W 003°44'29 1.0
2016-Dec-02 13:26N 46°40' W 003°16'5 5.3
2016-Dec-02 12:33N 46°38' W 003°22'2 1.4
2016-Dec-02 11:28N 46°38' W 003°24'2 2.3
2016-Dec-02 10:32N 46°36' W 003°22'4 3.6
2016-Dec-02 09:32N 46°36' W 003°17'5 1.7
2016-Dec-02 06:33N 46°36' W 003°24'3 2.9
2016-Dec-02 05:32N 46°38' W 003°22'2 1.7
2016-Dec-02 04:33N 46°37' W 003°23'2 1.8
2016-Dec-02 03:33N 46°38' W 003°22'2 1.2
2016-Dec-02 01:33N 46°36' W 003°24'2 2.4
2016-Dec-02 00:33N 46°39' W 003°22'1 1.1
2016-Dec-01 23:30N 46°38' W 003°21'3 2.5
2016-Dec-01 22:21N 46°37' W 003°24'3 3.1
2016-Dec-01 21:30N 46°38' W 003°21'13 2.9
2016-Dec-01 17:08N 46°38' W 003°03'5 8.0
2016-Dec-01 16:33N 46°38' W 002°56'36 3.0
2016-Dec-01 04:33N 46°28' W 002°06'8 7.9
2016-Dec-01 03:33N 46°28' W 001°55'5 5.4
2016-Dec-01 02:33N 46°30' W 001°47'0 0.0
2016-Dec-01 01:33N 46°30' W 001°47'6 6.0
2016-Dec-01 00:33N 46°28' W 001°55'43 2.0
2016-Nov-30 03:31N 46°35' W 002°57'3 3.3
2016-Nov-30 02:32N 46°38' W 002°58'6 0.8
2016-Nov-29 18:33N 46°33' W 002°55'  
Track history (hours):
 
Tides and Currents Weather Stations Pressure Air Temp Water Temp Dewpoint Dewpoint Depression Visibility Wind Speed Wind Dir Waves Ship Positions

F\v Desperado

Last reported at 2016-Dec-09 01:33 UTC. Time now 2016-Dec-09 02:08 UTC.
Position N 47°53' W 003°55'.

Type: Fishing. MMSI: 228312000.

Date/timePositionNaut miles runAvg speedWind from/ knotsBaromVisibWave heightAir tempDewpointWater temp
2016-Dec-09 01:33N 47°53' W 003°55'0 0.0
2016-Dec-09 00:16N 47°53' W 003°55'0 0.0
2016-Dec-08 23:21N 47°53' W 003°55'0 0.0
2016-Dec-08 13:03N 47°53' W 003°55'0 0.0
2016-Dec-08 10:12N 47°53' W 003°55'0 0.0
2016-Dec-08 08:14N 47°53' W 003°55'0 0.0
2016-Dec-08 07:19N 47°53' W 003°55'0 0.0
2016-Dec-08 05:30N 47°53' W 003°55'0 0.0
2016-Dec-08 04:05N 47°53' W 003°55'5 1.7
2016-Dec-08 01:22N 47°48' W 003°56'9 8.2
2016-Dec-08 00:16N 47°39' W 003°54'6 8.3
2016-Dec-07 23:33N 47°33' W 003°54'8 8.3
2016-Dec-07 22:33N 47°25' W 003°53'7 7.0
2016-Dec-07 21:33N 47°18' W 003°53'3 3.2
2016-Dec-07 20:33N 47°15' W 003°53'3 3.4
2016-Dec-07 19:33N 47°11' W 003°54'4 3.6
2016-Dec-07 18:33N 47°08' W 003°55'2 2.4
2016-Dec-07 17:33N 47°08' W 003°52'3 2.8
2016-Dec-07 16:33N 47°07' W 003°55'3 2.9
2016-Dec-07 15:34N 47°10' W 003°55'3 2.9
2016-Dec-07 14:33N 47°08' W 003°52'3 2.5
2016-Dec-07 13:33N 47°05' W 003°51'3 3.0
2016-Dec-07 12:33N 47°07' W 003°54'3 2.8
2016-Dec-07 11:33N 47°10' W 003°54'2 2.3
2016-Dec-07 10:33N 47°08' W 003°52'2 2.3
2016-Dec-07 09:33N 47°08' W 003°56'3 2.8
2016-Dec-07 08:33N 47°10' W 003°54'3 2.3
2016-Dec-07 07:22N 47°07' W 003°53'2 2.5
2016-Dec-07 06:33N 47°07' W 003°56'3 2.9
2016-Dec-07 05:33N 47°10' W 003°54'3 2.6
2016-Dec-07 04:33N 47°07' W 003°52'2 2.5
2016-Dec-07 03:33N 47°08' W 003°56'2 2.3
2016-Dec-07 02:33N 47°09' W 003°53'3 2.4
2016-Dec-07 01:25N 47°07' W 003°55'2 2.8
2016-Dec-07 00:33N 47°09' W 003°55'2 2.0
2016-Dec-06 23:30N 47°08' W 003°52'2 2.0
2016-Dec-06 22:33N 47°07' W 003°55'1 0.7
2016-Dec-06 21:33N 47°08' W 003°54'2 2.2
2016-Dec-06 20:31N 47°10' W 003°52'2 0.7
2016-Dec-06 17:30N 47°09' W 003°55'2 2.3
2016-Dec-06 16:33N 47°07' W 003°52'2 1.3
2016-Dec-06 15:06N 47°08' W 003°55'2 3.5
2016-Dec-06 14:33N 47°07' W 003°53'5 3.7
2016-Dec-06 13:18N 47°03' W 003°48'4 3.5
2016-Dec-06 12:12N 47°00' W 003°45'1 1.1
2016-Dec-06 11:17N 46°59' W 003°45'2 2.1
2016-Dec-06 10:21N 47°00' W 003°42'4 3.6
2016-Dec-06 09:15N 47°03' W 003°38'4 3.6
2016-Dec-06 08:15N 47°05' W 003°34'2 2.4
2016-Dec-06 07:26N 47°05' W 003°31'3 3.0
2016-Dec-06 06:31N 47°08' W 003°31'3 3.2
2016-Dec-06 05:33N 47°10' W 003°34'4 1.7
2016-Dec-06 03:21N 47°07' W 003°37'2 3.0
2016-Dec-06 02:33N 47°10' W 003°37'3 2.8
2016-Dec-06 01:33N 47°13' W 003°36'2 2.2
2016-Dec-06 00:33N 47°11' W 003°34'4 3.6
2016-Dec-05 23:33N 47°08' W 003°33'3 3.3
2016-Dec-05 22:33N 47°05' W 003°35'40 1.8
2016-Dec-04 23:28N 47°43' W 003°55'8 8.3
2016-Dec-04 22:33N 47°35' W 003°52'9 8.3
2016-Dec-04 21:29N 47°27' W 003°47'8 7.6
2016-Dec-04 20:27N 47°20' W 003°43'17 1.5
2016-Dec-04 08:31N 47°02' W 003°46'2 1.9
2016-Dec-04 07:30N 47°04' W 003°45'2 2.2
2016-Dec-04 06:34N 47°02' W 003°44'2 0.6
2016-Dec-04 03:32N 47°02' W 003°41'3 2.6
2016-Dec-04 02:23N 47°04' W 003°44'3 2.9
2016-Dec-04 01:31N 47°06' W 003°44'2 2.5
2016-Dec-04 00:32N 47°09' W 003°44'7 1.5
2016-Dec-03 19:30N 47°01' W 003°44'29 1.0
2016-Dec-02 13:26N 46°40' W 003°16'5 5.3
2016-Dec-02 12:33N 46°38' W 003°22'2 1.4
2016-Dec-02 11:28N 46°38' W 003°24'2 2.3
2016-Dec-02 10:32N 46°36' W 003°22'4 3.6
2016-Dec-02 09:32N 46°36' W 003°17'5 1.7
2016-Dec-02 06:33N 46°36' W 003°24'3 2.9
2016-Dec-02 05:32N 46°38' W 003°22'2 1.7
2016-Dec-02 04:33N 46°37' W 003°23'2 1.8
2016-Dec-02 03:33N 46°38' W 003°22'2 1.2
2016-Dec-02 01:33N 46°36' W 003°24'2 2.4
2016-Dec-02 00:33N 46°39' W 003°22'1 1.1
2016-Dec-01 23:30N 46°38' W 003°21'3 2.5
2016-Dec-01 22:21N 46°37' W 003°24'3 3.1
2016-Dec-01 21:30N 46°38' W 003°21'13 2.9
2016-Dec-01 17:08N 46°38' W 003°03'5 8.0
2016-Dec-01 16:33N 46°38' W 002°56'36 3.0
2016-Dec-01 04:33N 46°28' W 002°06'8 7.9
2016-Dec-01 03:33N 46°28' W 001°55'5 5.4
2016-Dec-01 02:33N 46°30' W 001°47'0 0.0
2016-Dec-01 01:33N 46°30' W 001°47'6 6.0
2016-Dec-01 00:33N 46°28' W 001°55'43 2.0
2016-Nov-30 03:31N 46°35' W 002°57'3 3.3
2016-Nov-30 02:32N 46°38' W 002°58'6 0.8
2016-Nov-29 18:33N 46°33' W 002°55'  

Dump ship's entire track history